Morgan Reinauer — WCA3764 — position and weather

sailwx.info

Track history (hours):
 
Tides and Currents Weather Stations Pressure Air Temp Water Temp Dewpoint Dewpoint Depression Visibility Wind Speed Wind Dir Waves Ship Positions

Morgan Reinauer

Owner: REINAUER, HAROLD A, STATEN ISLAND, NY. More information available from US FCC via Universal Licensing System and Coast Guard Vessel Documentation Center.

Last reported at 2017-Oct-19 15:55 UTC. Time now 2017-Oct-19 23:29 UTC.
Position N 40°54' W 073°41'.

Length 158 m; draft 6 m.

Type: . MMSI: 366516380.

Date/timePositionNaut miles runAvg speedWind from/ knotsBaromVisibWave heightAir tempDewpointWater temp
2017-Oct-19 15:55N 40°54' W 073°41'6 8.7
2017-Oct-19 15:11N 40°50' W 073°47'2 7.7
2017-Oct-19 14:59N 40°48' W 073°47'4 8.6
2017-Oct-19 14:30N 40°48' W 073°53'4 8.2
2017-Oct-19 14:00N 40°46' W 073°57'4 8.5
2017-Oct-19 13:30N 40°42' W 074°00'4 7.9
2017-Oct-19 13:00N 40°39' W 074°03'0 0.3
2017-Oct-19 12:28N 40°39' W 074°03'0 0.0
2017-Oct-19 11:58N 40°39' W 074°03'0 0.1
2017-Oct-19 11:28N 40°39' W 074°03'0 0.1
2017-Oct-19 10:59N 40°39' W 074°03'0 0.0
2017-Oct-19 10:29N 40°39' W 074°03'0 0.0
2017-Oct-19 09:59N 40°39' W 074°03'1 1.0
2017-Oct-19 09:30N 40°39' W 074°03'3 6.4
2017-Oct-19 09:00N 40°39' W 074°08'3 6.4
2017-Oct-19 08:30N 40°38' W 074°12'3 6.4
2017-Oct-19 08:00N 40°35' W 074°13'3 5.2
2017-Oct-19 07:30N 40°33' W 074°15'1 0.9
2017-Oct-19 06:56N 40°33' W 074°15'0 0.0
2017-Oct-19 06:26N 40°33' W 074°15'0 0.0
2017-Oct-19 05:59N 40°33' W 074°15'0 0.0
2017-Oct-19 05:29N 40°33' W 074°15'0 0.0
2017-Oct-19 04:56N 40°33' W 074°15'0 0.0
2017-Oct-19 04:29N 40°33' W 074°15'0 0.0
2017-Oct-19 03:59N 40°33' W 074°15'0 0.0
2017-Oct-19 03:23N 40°33' W 074°15'0 0.0
2017-Oct-19 02:53N 40°33' W 074°15'0 0.0
2017-Oct-19 02:23N 40°33' W 074°15'0 0.0
2017-Oct-19 01:59N 40°33' W 074°15'0 0.0
2017-Oct-19 00:32N 40°33' W 074°15'0 0.0
2017-Oct-19 00:14N 40°33' W 074°15'0 0.0
2017-Oct-18 23:41N 40°33' W 074°15'0 0.0
2017-Oct-18 23:17N 40°33' W 074°15'0 0.0
2017-Oct-18 22:56N 40°33' W 074°15'0 0.0
2017-Oct-18 22:29N 40°33' W 074°15'0 0.0
2017-Oct-18 21:59N 40°33' W 074°15'0 0.0
2017-Oct-18 21:29N 40°33' W 074°15'0 0.0
2017-Oct-18 20:56N 40°33' W 074°15'0 0.0
2017-Oct-18 20:23N 40°33' W 074°15'0 0.0
2017-Oct-18 19:59N 40°33' W 074°15'0 0.0
2017-Oct-18 19:29N 40°33' W 074°15'0 0.0
2017-Oct-18 18:59N 40°33' W 074°15'0 0.0
2017-Oct-18 18:29N 40°33' W 074°15'0 0.0
2017-Oct-18 17:59N 40°33' W 074°15'0 0.0
2017-Oct-18 17:29N 40°33' W 074°15'0 0.0
2017-Oct-18 16:59N 40°33' W 074°15'0 0.0
2017-Oct-18 16:29N 40°33' W 074°15'0 0.0
2017-Oct-18 15:59N 40°33' W 074°15'0 0.0
2017-Oct-18 15:29N 40°33' W 074°15'0 0.0
2017-Oct-18 14:59N 40°33' W 074°15'0 0.0
2017-Oct-18 13:59N 40°33' W 074°15'0 0.0
2017-Oct-18 13:11N 40°33' W 074°15'0 0.0
2017-Oct-18 12:53N 40°33' W 074°15'0 0.0
2017-Oct-18 12:29N 40°33' W 074°15'0 0.0
2017-Oct-18 11:59N 40°33' W 074°15'0 0.0
2017-Oct-18 11:29N 40°33' W 074°15'0 0.0
2017-Oct-18 10:59N 40°33' W 074°15'0 0.0
2017-Oct-18 10:23N 40°33' W 074°15'0 0.0
2017-Oct-18 09:59N 40°33' W 074°15'0 0.0
2017-Oct-18 09:29N 40°33' W 074°15'0 0.0
2017-Oct-18 08:59N 40°33' W 074°15'0 0.0
2017-Oct-18 08:29N 40°33' W 074°15'0 0.0
2017-Oct-18 07:59N 40°33' W 074°15'0 0.0
2017-Oct-18 07:29N 40°33' W 074°15'0 0.0
2017-Oct-18 06:59N 40°33' W 074°15'0 0.0
2017-Oct-18 06:29N 40°33' W 074°15'0 0.0
2017-Oct-18 05:59N 40°33' W 074°15'0 0.0
2017-Oct-18 05:29N 40°33' W 074°15'0 0.0
2017-Oct-18 04:59N 40°33' W 074°15'0 0.0
2017-Oct-18 04:29N 40°33' W 074°15'0 0.0
2017-Oct-18 03:59N 40°33' W 074°15'0 0.0
2017-Oct-18 03:29N 40°33' W 074°15'0 0.0
2017-Oct-18 02:59N 40°33' W 074°15'0 0.0
2017-Oct-18 02:29N 40°33' W 074°15'0 0.0
2017-Oct-18 01:59N 40°33' W 074°15'0 0.0
2017-Oct-18 01:29N 40°33' W 074°15'0 0.0
2017-Oct-18 00:59N 40°33' W 074°15'0 0.0
2017-Oct-18 00:29N 40°33' W 074°15'0 0.0
2017-Oct-17 23:59N 40°33' W 074°15'0 0.0
2017-Oct-17 23:23N 40°33' W 074°15'0 0.0
2017-Oct-17 22:59N 40°33' W 074°15'0 0.0
2017-Oct-17 22:26N 40°33' W 074°15'0 0.0
2017-Oct-17 21:32N 40°33' W 074°15'0 0.1
2017-Oct-17 21:29N 40°33' W 074°15'0 0.0
2017-Oct-17 20:56N 40°33' W 074°15'0 0.0
2017-Oct-17 20:29N 40°33' W 074°15'0 0.0
2017-Oct-17 19:59N 40°33' W 074°15'0 0.0
2017-Oct-17 19:23N 40°33' W 074°15'0 0.0
2017-Oct-17 18:59N 40°33' W 074°15'0 0.0
2017-Oct-17 18:29N 40°33' W 074°15'0 0.0
2017-Oct-17 17:59N 40°33' W 074°15'0 0.0
2017-Oct-17 17:23N 40°33' W 074°15'0 0.0
2017-Oct-17 16:47N 40°33' W 074°15'0 0.0
2017-Oct-17 16:29N 40°33' W 074°15'0 0.0
2017-Oct-17 15:59N 40°33' W 074°15'0 0.0
2017-Oct-17 15:20N 40°33' W 074°15'0 0.0
2017-Oct-17 14:59N 40°33' W 074°15'0 0.0
2017-Oct-17 14:26N 40°33' W 074°15'0 0.0
2017-Oct-17 13:59N 40°33' W 074°15'0 0.0
2017-Oct-17 13:29N 40°33' W 074°15'0 0.0
2017-Oct-17 12:59N 40°33' W 074°15'3 0.4
2017-Oct-17 04:11N 40°30' W 074°12'2 9.3
2017-Oct-17 03:59N 40°30' W 074°09'4 9.1
2017-Oct-17 03:29N 40°29' W 074°04'4 9.0
2017-Oct-17 03:00N 40°33' W 074°02'611.9
2017-Oct-17 02:30N 40°39' W 074°03'510.7
2017-Oct-17 02:00N 40°43' W 073°58'611.4
2017-Oct-17 01:30N 40°48' W 073°55'5 9.7
2017-Oct-17 01:00N 40°48' W 073°48'4 8.9
2017-Oct-17 00:30N 40°52' W 073°45'4310.1
2017-Oct-16 20:16N 41°07' W 072°52'3 9.9
2017-Oct-16 20:00N 41°07' W 072°48'5 9.6
2017-Oct-16 19:30N 41°08' W 072°42'5 9.3
2017-Oct-16 19:00N 41°09' W 072°36'4 8.9
2017-Oct-16 18:30N 41°10' W 072°30'4 8.5
2017-Oct-16 18:00N 41°11' W 072°25'4 7.9
2017-Oct-16 17:30N 41°12' W 072°20'4 7.4
2017-Oct-16 17:00N 41°13' W 072°15'4 7.5
2017-Oct-16 16:30N 41°14' W 072°10'42 8.2
2017-Oct-16 11:21N 41°33' W 071°20'510.3
2017-Oct-16 10:54N 41°37' W 071°18'4 9.8
2017-Oct-16 10:30N 41°41' W 071°19'5 9.5
2017-Oct-16 09:58N 41°45' W 071°22'2 0.1
2017-Oct-15 11:18N 41°47' W 071°23'2 6.3
2017-Oct-15 11:00N 41°45' W 071°22'4 7.1
2017-Oct-15 10:30N 41°42' W 071°20'6 8.7
2017-Oct-15 09:51N 41°37' W 071°17'0 0.9
2017-Oct-15 09:27N 41°37' W 071°17'0 0.1
2017-Oct-15 08:12N 41°37' W 071°17'0 0.0
2017-Oct-15 07:18N 41°37' W 071°17'0 0.0
2017-Oct-15 07:00N 41°37' W 071°17'0 0.1
2017-Oct-15 06:30N 41°37' W 071°17'2 2.4
2017-Oct-15 05:41N 41°35' W 071°18'15 7.9
2017-Oct-15 03:49N 41°21' W 071°22'93 7.9
2017-Oct-14 16:01N 40°35' W 073°09'1 7.9
2017-Oct-14 15:54N 40°35' W 073°10'3 7.9
2017-Oct-14 15:30N 40°34' W 073°14'6 7.8
2017-Oct-14 14:40N 40°32' W 073°22'1 7.8
2017-Oct-14 14:30N 40°32' W 073°24'5 7.8
2017-Oct-14 13:55N 40°31' W 073°30'16 8.2
2017-Oct-14 11:56N 40°29' W 073°51'4 8.8
2017-Oct-14 11:29N 40°30' W 073°56'5 9.8
2017-Oct-14 11:00N 40°32' W 074°01'5 9.6
2017-Oct-14 10:30N 40°37' W 074°03'4 7.1
2017-Oct-14 10:00N 40°39' W 074°07'4 7.6
2017-Oct-14 09:30N 40°38' W 074°12'3 5.3
2017-Oct-14 09:00N 40°35' W 074°13'0 0.0
2017-Oct-14 08:25N 40°35' W 074°13'0 0.0
2017-Oct-14 07:55N 40°35' W 074°13'0 0.0
2017-Oct-14 07:28N 40°35' W 074°13'0 0.0
2017-Oct-14 06:49N 40°35' W 074°13'0 0.0
2017-Oct-14 06:19N 40°35' W 074°13'0 0.0
2017-Oct-14 04:31N 40°35' W 074°13'0 0.0
2017-Oct-14 04:25N 40°35' W 074°13'0 0.0
2017-Oct-13 22:43N 40°35' W 074°13'0 0.0
2017-Oct-13 22:16N 40°35' W 074°13'0 0.0
2017-Oct-13 21:52N 40°35' W 074°13'0 0.0
2017-Oct-13 21:28N 40°35' W 074°13'0 0.0
2017-Oct-13 20:58N 40°35' W 074°13'0 0.0
2017-Oct-13 20:28N 40°35' W 074°13'0 0.0
2017-Oct-13 19:40N 40°35' W 074°13'0 0.0
2017-Oct-13 19:22N 40°35' W 074°13'0 0.0
2017-Oct-13 18:52N 40°35' W 074°13'0 0.0
2017-Oct-13 18:22N 40°35' W 074°13'0 0.0
2017-Oct-13 17:58N 40°35' W 074°13'0 0.0
2017-Oct-13 17:28N 40°35' W 074°13'0 0.0
2017-Oct-13 16:58N 40°35' W 074°13'0 0.0
2017-Oct-13 16:16N 40°35' W 074°13'0 0.0
2017-Oct-13 15:46N 40°35' W 074°13'0 0.0
2017-Oct-13 15:28N 40°35' W 074°13'0 0.0
2017-Oct-13 14:55N 40°35' W 074°13'0 0.0
2017-Oct-13 14:28N 40°35' W 074°13'1 2.3
2017-Oct-13 14:00N 40°34' W 074°13'3 0.7
2017-Oct-13 10:24N 40°32' W 074°15'0 0.0
2017-Oct-13 09:54N 40°32' W 074°15'0 0.0
2017-Oct-13 05:00N 40°32' W 074°15'0 0.0
2017-Oct-13 03:19N 40°32' W 074°15'1 2.4
2017-Oct-13 03:00N 40°33' W 074°15'4 7.3
2017-Oct-13 02:30N 40°36' W 074°12'3 5.8
2017-Oct-13 02:00N 40°39' W 074°10'4 8.8
2017-Oct-13 01:30N 40°39' W 074°05'2 3.3
2017-Oct-13 01:00N 40°40' W 074°03'0 0.0
2017-Oct-13 00:31N 40°40' W 074°03'0 0.0
2017-Oct-13 00:00N 40°40' W 074°03'0 0.1
2017-Oct-12 23:30N 40°40' W 074°03'0 0.1
2017-Oct-12 23:00N 40°40' W 074°03'0 0.0
2017-Oct-12 22:30N 40°40' W 074°03'0 0.0
2017-Oct-12 21:57N 40°40' W 074°03'0 0.0
2017-Oct-12 21:24N 40°40' W 074°03'0 0.0
2017-Oct-12 21:00N 40°40' W 074°03'0 0.2
2017-Oct-12 20:27N 40°40' W 074°03'0 0.1
2017-Oct-12 20:00N 40°40' W 074°03'0 0.0
2017-Oct-12 19:30N 40°40' W 074°03'0 0.1
2017-Oct-12 19:00N 40°40' W 074°03'0 0.1
2017-Oct-12 18:30N 40°40' W 074°03'0 0.1
2017-Oct-12 18:00N 40°40' W 074°03'0 0.1
2017-Oct-12 17:30N 40°40' W 074°03'0 0.2
2017-Oct-12 17:00N 40°40' W 074°03'3 5.1
2017-Oct-12 16:30N 40°42' W 074°00'3 6.0
2017-Oct-12 16:00N 40°44' W 073°58'3 6.2
2017-Oct-12 15:30N 40°47' W 073°56'3 6.8
2017-Oct-12 15:00N 40°48' W 073°51'4 7.4
2017-Oct-12 14:30N 40°49' W 073°47'27 0.6
2017-Oct-10 18:29N 40°32' W 074°15'3 6.6
2017-Oct-10 17:59N 40°35' W 074°12'4 8.2
2017-Oct-10 17:30N 40°39' W 074°11'2 4.9
2017-Oct-10 17:00N 40°38' W 074°08'0 0.0
2017-Oct-10 16:31N 40°38' W 074°08'1 2.9
2017-Oct-10 16:00N 40°39' W 074°10'2 3.4
2017-Oct-10 15:30N 40°38' W 074°12'0 0.0
2017-Oct-10 15:00N 40°38' W 074°12'0 0.0
2017-Oct-10 14:00N 40°38' W 074°12'0 0.0
2017-Oct-10 13:30N 40°38' W 074°12'0 0.0
2017-Oct-10 13:00N 40°38' W 074°12'1 1.1
2017-Oct-10 12:30N 40°38' W 074°12'4 8.4
2017-Oct-10 11:58N 40°33' W 074°13'2 1.0
2017-Oct-10 10:15N 40°32' W 074°15'0 0.0
2017-Oct-10 09:57N 40°32' W 074°15'0 0.0
2017-Oct-10 08:27N 40°32' W 074°15'0 0.0
2017-Oct-10 07:58N 40°32' W 074°15'0 0.0
2017-Oct-10 07:30N 40°32' W 074°15'0 0.0
2017-Oct-10 07:00N 40°32' W 074°15'0 0.0
2017-Oct-10 06:30N 40°32' W 074°15'0 0.0
2017-Oct-10 06:00N 40°32' W 074°15'0 0.0
2017-Oct-10 05:20N 40°32' W 074°15'0 0.0
2017-Oct-10 00:04N 40°32' W 074°15'0 0.2
2017-Oct-09 23:58N 40°32' W 074°15'0 0.0
2017-Oct-09 23:28N 40°32' W 074°15'1 1.7
2017-Oct-09 22:58N 40°33' W 074°15'4 8.1
2017-Oct-09 22:30N 40°37' W 074°12'3 6.4
2017-Oct-09 22:00N 40°39' W 074°09'4 8.1
2017-Oct-09 21:31N 40°39' W 074°04'510.9
2017-Oct-09 21:00N 40°43' W 073°58'611.4
2017-Oct-09 20:30N 40°48' W 073°55'5 9.8
2017-Oct-09 19:59N 40°48' W 073°48'4 7.6
2017-Oct-09 19:29N 40°51' W 073°45'  
Track history (hours):
 
Tides and Currents Weather Stations Pressure Air Temp Water Temp Dewpoint Dewpoint Depression Visibility Wind Speed Wind Dir Waves Ship Positions

Morgan Reinauer

Owner: REINAUER, HAROLD A, STATEN ISLAND, NY. More information available from US FCC via Universal Licensing System and Coast Guard Vessel Documentation Center.

Last reported at 2017-Oct-19 15:55 UTC. Time now 2017-Oct-19 23:29 UTC.
Position N 40°54' W 073°41'.

Length 158 m; draft 6 m.

Type: . MMSI: 366516380.

Date/timePositionNaut miles runAvg speedWind from/ knotsBaromVisibWave heightAir tempDewpointWater temp
2017-Oct-19 15:55N 40°54' W 073°41'6 8.7
2017-Oct-19 15:11N 40°50' W 073°47'2 7.7
2017-Oct-19 14:59N 40°48' W 073°47'4 8.6
2017-Oct-19 14:30N 40°48' W 073°53'4 8.2
2017-Oct-19 14:00N 40°46' W 073°57'4 8.5
2017-Oct-19 13:30N 40°42' W 074°00'4 7.9
2017-Oct-19 13:00N 40°39' W 074°03'0 0.3
2017-Oct-19 12:28N 40°39' W 074°03'0 0.0
2017-Oct-19 11:58N 40°39' W 074°03'0 0.1
2017-Oct-19 11:28N 40°39' W 074°03'0 0.1
2017-Oct-19 10:59N 40°39' W 074°03'0 0.0
2017-Oct-19 10:29N 40°39' W 074°03'0 0.0
2017-Oct-19 09:59N 40°39' W 074°03'1 1.0
2017-Oct-19 09:30N 40°39' W 074°03'3 6.4
2017-Oct-19 09:00N 40°39' W 074°08'3 6.4
2017-Oct-19 08:30N 40°38' W 074°12'3 6.4
2017-Oct-19 08:00N 40°35' W 074°13'3 5.2
2017-Oct-19 07:30N 40°33' W 074°15'1 0.9
2017-Oct-19 06:56N 40°33' W 074°15'0 0.0
2017-Oct-19 06:26N 40°33' W 074°15'0 0.0
2017-Oct-19 05:59N 40°33' W 074°15'0 0.0
2017-Oct-19 05:29N 40°33' W 074°15'0 0.0
2017-Oct-19 04:56N 40°33' W 074°15'0 0.0
2017-Oct-19 04:29N 40°33' W 074°15'0 0.0
2017-Oct-19 03:59N 40°33' W 074°15'0 0.0
2017-Oct-19 03:23N 40°33' W 074°15'0 0.0
2017-Oct-19 02:53N 40°33' W 074°15'0 0.0
2017-Oct-19 02:23N 40°33' W 074°15'0 0.0
2017-Oct-19 01:59N 40°33' W 074°15'0 0.0
2017-Oct-19 00:32N 40°33' W 074°15'0 0.0
2017-Oct-19 00:14N 40°33' W 074°15'0 0.0
2017-Oct-18 23:41N 40°33' W 074°15'0 0.0
2017-Oct-18 23:17N 40°33' W 074°15'0 0.0
2017-Oct-18 22:56N 40°33' W 074°15'0 0.0
2017-Oct-18 22:29N 40°33' W 074°15'0 0.0
2017-Oct-18 21:59N 40°33' W 074°15'0 0.0
2017-Oct-18 21:29N 40°33' W 074°15'0 0.0
2017-Oct-18 20:56N 40°33' W 074°15'0 0.0
2017-Oct-18 20:23N 40°33' W 074°15'0 0.0
2017-Oct-18 19:59N 40°33' W 074°15'0 0.0
2017-Oct-18 19:29N 40°33' W 074°15'0 0.0
2017-Oct-18 18:59N 40°33' W 074°15'0 0.0
2017-Oct-18 18:29N 40°33' W 074°15'0 0.0
2017-Oct-18 17:59N 40°33' W 074°15'0 0.0
2017-Oct-18 17:29N 40°33' W 074°15'0 0.0
2017-Oct-18 16:59N 40°33' W 074°15'0 0.0
2017-Oct-18 16:29N 40°33' W 074°15'0 0.0
2017-Oct-18 15:59N 40°33' W 074°15'0 0.0
2017-Oct-18 15:29N 40°33' W 074°15'0 0.0
2017-Oct-18 14:59N 40°33' W 074°15'0 0.0
2017-Oct-18 13:59N 40°33' W 074°15'0 0.0
2017-Oct-18 13:11N 40°33' W 074°15'0 0.0
2017-Oct-18 12:53N 40°33' W 074°15'0 0.0
2017-Oct-18 12:29N 40°33' W 074°15'0 0.0
2017-Oct-18 11:59N 40°33' W 074°15'0 0.0
2017-Oct-18 11:29N 40°33' W 074°15'0 0.0
2017-Oct-18 10:59N 40°33' W 074°15'0 0.0
2017-Oct-18 10:23N 40°33' W 074°15'0 0.0
2017-Oct-18 09:59N 40°33' W 074°15'0 0.0
2017-Oct-18 09:29N 40°33' W 074°15'0 0.0
2017-Oct-18 08:59N 40°33' W 074°15'0 0.0
2017-Oct-18 08:29N 40°33' W 074°15'0 0.0
2017-Oct-18 07:59N 40°33' W 074°15'0 0.0
2017-Oct-18 07:29N 40°33' W 074°15'0 0.0
2017-Oct-18 06:59N 40°33' W 074°15'0 0.0
2017-Oct-18 06:29N 40°33' W 074°15'0 0.0
2017-Oct-18 05:59N 40°33' W 074°15'0 0.0
2017-Oct-18 05:29N 40°33' W 074°15'0 0.0
2017-Oct-18 04:59N 40°33' W 074°15'0 0.0
2017-Oct-18 04:29N 40°33' W 074°15'0 0.0
2017-Oct-18 03:59N 40°33' W 074°15'0 0.0
2017-Oct-18 03:29N 40°33' W 074°15'0 0.0
2017-Oct-18 02:59N 40°33' W 074°15'0 0.0
2017-Oct-18 02:29N 40°33' W 074°15'0 0.0
2017-Oct-18 01:59N 40°33' W 074°15'0 0.0
2017-Oct-18 01:29N 40°33' W 074°15'0 0.0
2017-Oct-18 00:59N 40°33' W 074°15'0 0.0
2017-Oct-18 00:29N 40°33' W 074°15'0 0.0
2017-Oct-17 23:59N 40°33' W 074°15'0 0.0
2017-Oct-17 23:23N 40°33' W 074°15'0 0.0
2017-Oct-17 22:59N 40°33' W 074°15'0 0.0
2017-Oct-17 22:26N 40°33' W 074°15'0 0.0
2017-Oct-17 21:32N 40°33' W 074°15'0 0.1
2017-Oct-17 21:29N 40°33' W 074°15'0 0.0
2017-Oct-17 20:56N 40°33' W 074°15'0 0.0
2017-Oct-17 20:29N 40°33' W 074°15'0 0.0
2017-Oct-17 19:59N 40°33' W 074°15'0 0.0
2017-Oct-17 19:23N 40°33' W 074°15'0 0.0
2017-Oct-17 18:59N 40°33' W 074°15'0 0.0
2017-Oct-17 18:29N 40°33' W 074°15'0 0.0
2017-Oct-17 17:59N 40°33' W 074°15'0 0.0
2017-Oct-17 17:23N 40°33' W 074°15'0 0.0
2017-Oct-17 16:47N 40°33' W 074°15'0 0.0
2017-Oct-17 16:29N 40°33' W 074°15'0 0.0
2017-Oct-17 15:59N 40°33' W 074°15'0 0.0
2017-Oct-17 15:20N 40°33' W 074°15'0 0.0
2017-Oct-17 14:59N 40°33' W 074°15'0 0.0
2017-Oct-17 14:26N 40°33' W 074°15'0 0.0
2017-Oct-17 13:59N 40°33' W 074°15'0 0.0
2017-Oct-17 13:29N 40°33' W 074°15'0 0.0
2017-Oct-17 12:59N 40°33' W 074°15'3 0.4
2017-Oct-17 04:11N 40°30' W 074°12'2 9.3
2017-Oct-17 03:59N 40°30' W 074°09'4 9.1
2017-Oct-17 03:29N 40°29' W 074°04'4 9.0
2017-Oct-17 03:00N 40°33' W 074°02'611.9
2017-Oct-17 02:30N 40°39' W 074°03'510.7
2017-Oct-17 02:00N 40°43' W 073°58'611.4
2017-Oct-17 01:30N 40°48' W 073°55'5 9.7
2017-Oct-17 01:00N 40°48' W 073°48'4 8.9
2017-Oct-17 00:30N 40°52' W 073°45'4310.1
2017-Oct-16 20:16N 41°07' W 072°52'3 9.9
2017-Oct-16 20:00N 41°07' W 072°48'5 9.6
2017-Oct-16 19:30N 41°08' W 072°42'5 9.3
2017-Oct-16 19:00N 41°09' W 072°36'4 8.9
2017-Oct-16 18:30N 41°10' W 072°30'4 8.5
2017-Oct-16 18:00N 41°11' W 072°25'4 7.9
2017-Oct-16 17:30N 41°12' W 072°20'4 7.4
2017-Oct-16 17:00N 41°13' W 072°15'4 7.5
2017-Oct-16 16:30N 41°14' W 072°10'42 8.2
2017-Oct-16 11:21N 41°33' W 071°20'510.3
2017-Oct-16 10:54N 41°37' W 071°18'4 9.8
2017-Oct-16 10:30N 41°41' W 071°19'5 9.5
2017-Oct-16 09:58N 41°45' W 071°22'2 0.1
2017-Oct-15 11:18N 41°47' W 071°23'2 6.3
2017-Oct-15 11:00N 41°45' W 071°22'4 7.1
2017-Oct-15 10:30N 41°42' W 071°20'6 8.7
2017-Oct-15 09:51N 41°37' W 071°17'0 0.9
2017-Oct-15 09:27N 41°37' W 071°17'0 0.1
2017-Oct-15 08:12N 41°37' W 071°17'0 0.0
2017-Oct-15 07:18N 41°37' W 071°17'0 0.0
2017-Oct-15 07:00N 41°37' W 071°17'0 0.1
2017-Oct-15 06:30N 41°37' W 071°17'2 2.4
2017-Oct-15 05:41N 41°35' W 071°18'15 7.9
2017-Oct-15 03:49N 41°21' W 071°22'93 7.9
2017-Oct-14 16:01N 40°35' W 073°09'1 7.9
2017-Oct-14 15:54N 40°35' W 073°10'3 7.9
2017-Oct-14 15:30N 40°34' W 073°14'6 7.8
2017-Oct-14 14:40N 40°32' W 073°22'1 7.8
2017-Oct-14 14:30N 40°32' W 073°24'5 7.8
2017-Oct-14 13:55N 40°31' W 073°30'16 8.2
2017-Oct-14 11:56N 40°29' W 073°51'4 8.8
2017-Oct-14 11:29N 40°30' W 073°56'5 9.8
2017-Oct-14 11:00N 40°32' W 074°01'5 9.6
2017-Oct-14 10:30N 40°37' W 074°03'4 7.1
2017-Oct-14 10:00N 40°39' W 074°07'4 7.6
2017-Oct-14 09:30N 40°38' W 074°12'3 5.3
2017-Oct-14 09:00N 40°35' W 074°13'0 0.0
2017-Oct-14 08:25N 40°35' W 074°13'0 0.0
2017-Oct-14 07:55N 40°35' W 074°13'0 0.0
2017-Oct-14 07:28N 40°35' W 074°13'0 0.0
2017-Oct-14 06:49N 40°35' W 074°13'0 0.0
2017-Oct-14 06:19N 40°35' W 074°13'0 0.0
2017-Oct-14 04:31N 40°35' W 074°13'0 0.0
2017-Oct-14 04:25N 40°35' W 074°13'0 0.0
2017-Oct-13 22:43N 40°35' W 074°13'0 0.0
2017-Oct-13 22:16N 40°35' W 074°13'0 0.0
2017-Oct-13 21:52N 40°35' W 074°13'0 0.0
2017-Oct-13 21:28N 40°35' W 074°13'0 0.0
2017-Oct-13 20:58N 40°35' W 074°13'0 0.0
2017-Oct-13 20:28N 40°35' W 074°13'0 0.0
2017-Oct-13 19:40N 40°35' W 074°13'0 0.0
2017-Oct-13 19:22N 40°35' W 074°13'0 0.0
2017-Oct-13 18:52N 40°35' W 074°13'0 0.0
2017-Oct-13 18:22N 40°35' W 074°13'0 0.0
2017-Oct-13 17:58N 40°35' W 074°13'0 0.0
2017-Oct-13 17:28N 40°35' W 074°13'0 0.0
2017-Oct-13 16:58N 40°35' W 074°13'0 0.0
2017-Oct-13 16:16N 40°35' W 074°13'0 0.0
2017-Oct-13 15:46N 40°35' W 074°13'0 0.0
2017-Oct-13 15:28N 40°35' W 074°13'0 0.0
2017-Oct-13 14:55N 40°35' W 074°13'0 0.0
2017-Oct-13 14:28N 40°35' W 074°13'1 2.3
2017-Oct-13 14:00N 40°34' W 074°13'3 0.7
2017-Oct-13 10:24N 40°32' W 074°15'0 0.0
2017-Oct-13 09:54N 40°32' W 074°15'0 0.0
2017-Oct-13 05:00N 40°32' W 074°15'0 0.0
2017-Oct-13 03:19N 40°32' W 074°15'1 2.4
2017-Oct-13 03:00N 40°33' W 074°15'4 7.3
2017-Oct-13 02:30N 40°36' W 074°12'3 5.8
2017-Oct-13 02:00N 40°39' W 074°10'4 8.8
2017-Oct-13 01:30N 40°39' W 074°05'2 3.3
2017-Oct-13 01:00N 40°40' W 074°03'0 0.0
2017-Oct-13 00:31N 40°40' W 074°03'0 0.0
2017-Oct-13 00:00N 40°40' W 074°03'0 0.1
2017-Oct-12 23:30N 40°40' W 074°03'0 0.1
2017-Oct-12 23:00N 40°40' W 074°03'0 0.0
2017-Oct-12 22:30N 40°40' W 074°03'0 0.0
2017-Oct-12 21:57N 40°40' W 074°03'0 0.0
2017-Oct-12 21:24N 40°40' W 074°03'0 0.0
2017-Oct-12 21:00N 40°40' W 074°03'0 0.2
2017-Oct-12 20:27N 40°40' W 074°03'0 0.1
2017-Oct-12 20:00N 40°40' W 074°03'0 0.0
2017-Oct-12 19:30N 40°40' W 074°03'0 0.1
2017-Oct-12 19:00N 40°40' W 074°03'0 0.1
2017-Oct-12 18:30N 40°40' W 074°03'0 0.1
2017-Oct-12 18:00N 40°40' W 074°03'0 0.1
2017-Oct-12 17:30N 40°40' W 074°03'0 0.2
2017-Oct-12 17:00N 40°40' W 074°03'3 5.1
2017-Oct-12 16:30N 40°42' W 074°00'3 6.0
2017-Oct-12 16:00N 40°44' W 073°58'3 6.2
2017-Oct-12 15:30N 40°47' W 073°56'3 6.8
2017-Oct-12 15:00N 40°48' W 073°51'4 7.4
2017-Oct-12 14:30N 40°49' W 073°47'27 0.6
2017-Oct-10 18:29N 40°32' W 074°15'3 6.6
2017-Oct-10 17:59N 40°35' W 074°12'4 8.2
2017-Oct-10 17:30N 40°39' W 074°11'2 4.9
2017-Oct-10 17:00N 40°38' W 074°08'0 0.0
2017-Oct-10 16:31N 40°38' W 074°08'1 2.9
2017-Oct-10 16:00N 40°39' W 074°10'2 3.4
2017-Oct-10 15:30N 40°38' W 074°12'0 0.0
2017-Oct-10 15:00N 40°38' W 074°12'0 0.0
2017-Oct-10 14:00N 40°38' W 074°12'0 0.0
2017-Oct-10 13:30N 40°38' W 074°12'0 0.0
2017-Oct-10 13:00N 40°38' W 074°12'1 1.1
2017-Oct-10 12:30N 40°38' W 074°12'4 8.4
2017-Oct-10 11:58N 40°33' W 074°13'2 1.0
2017-Oct-10 10:15N 40°32' W 074°15'0 0.0
2017-Oct-10 09:57N 40°32' W 074°15'0 0.0
2017-Oct-10 08:27N 40°32' W 074°15'0 0.0
2017-Oct-10 07:58N 40°32' W 074°15'0 0.0
2017-Oct-10 07:30N 40°32' W 074°15'0 0.0
2017-Oct-10 07:00N 40°32' W 074°15'0 0.0
2017-Oct-10 06:30N 40°32' W 074°15'0 0.0
2017-Oct-10 06:00N 40°32' W 074°15'0 0.0
2017-Oct-10 05:20N 40°32' W 074°15'0 0.0
2017-Oct-10 00:04N 40°32' W 074°15'0 0.2
2017-Oct-09 23:58N 40°32' W 074°15'0 0.0
2017-Oct-09 23:28N 40°32' W 074°15'1 1.7
2017-Oct-09 22:58N 40°33' W 074°15'4 8.1
2017-Oct-09 22:30N 40°37' W 074°12'3 6.4
2017-Oct-09 22:00N 40°39' W 074°09'4 8.1
2017-Oct-09 21:31N 40°39' W 074°04'510.9
2017-Oct-09 21:00N 40°43' W 073°58'611.4
2017-Oct-09 20:30N 40°48' W 073°55'5 9.8
2017-Oct-09 19:59N 40°48' W 073°48'4 7.6
2017-Oct-09 19:29N 40°51' W 073°45'  

Dump ship's entire track history